Kezdőlap
METAR-TAF:

METAR-TAF

Repülőterek :

Poplar Bluff Municipal Airport

Poplar Bluff, Missouri, Amerikai Egyesült Államok

földrajzi szélesség: 36-46-14N, földrajzi hosszúság: 090-19-20W, magasság: 100 m

Jelenlegi meteorológiai megfigyelések

A jelentés 46 perccel ezelõtt készült, 09:53 UTC
Északi szél 3 kt
Hőmérséklet 21°C
Páratartalom 88%
Légköri nyomás 1017 hPa
Látótávolság: 16.1 km
Derült ég

METAR: KPOF 210953Z AUTO 01003KT 10SM CLR 21/19 A3003 RMK AO2 SLP163 T02110189 $

Idő: 05:39 (10:39 UTC)


TAF: hiányzik

Meteorológiai megfigyelések és előrejelzések több, mint 4000 repülőtéren (METAR és TAF jelentéseket).

A térképen piros és sárga pontok jelzik az elérhető meteorológiai állomásokat.

Mozgassa az egeret a pont fölött, hogy megjelenjen az állomás neve.

Azután kattintson az időjárási megfigyelések és előrejelzések megtekintéséhez.

A térkép megváltoztatása: kattintson a fekete keresztel jelölt zöld gombra ráközelítéshez, a vonallal jelölt zöld gombra távolításhoz, vagy a zöld nyilakra a szomszédos térképek eléréséhez.


METAR-TAF: